sensor_id;sensor_type;location;lat;lon;timestamp;P1;durP1;ratioP1;P2;durP2;ratioP2
57822;SDS011;43650;48.064;20.624;2023-02-08T00:00:59;12.13;;;4.57;;
57822;SDS011;43650;48.064;20.624;2023-02-08T00:02:00;12.63;;;4.90;;
57822;SDS011;43650;48.064;20.624;2023-02-08T00:03:00;9.80;;;4.37;;
57822;SDS011;43650;48.064;20.624;2023-02-08T00:04:01;11.73;;;4.77;;
57822;SDS011;43650;48.064;20.624;2023-02-08T00:05:01;15.83;;;5.07;;
57822;SDS011;43650;48.064;20.624;2023-02-08T00:06:02;10.50;;;4.60;;
57822;SDS011;43650;48.064;20.624;2023-02-08T00:08:04;11.05;;;4.82;;
57822;SDS011;43650;48.064;20.624;2023-02-08T00:09:04;6.37;;;3.50;;
57822;SDS011;43650;48.064;20.624;2023-02-08T00:10:06;10.23;;;4.37;;
57822;SDS011;43650;48.064;20.624;2023-02-08T00:11:07;11.43;;;4.28;;
57822;SDS011;43650;48.064;20.624;2023-02-08T00:12:09;8.32;;;4.50;;
57822;SDS011;43650;48.064;20.624;2023-02-08T00:13:10;8.13;;;4.03;;
57822;SDS011;43650;48.064;20.624;2023-02-08T00:14:10;14.60;;;4.60;;
57822;SDS011;43650;48.064;20.624;2023-02-08T00:15:11;12.00;;;4.67;;
57822;SDS011;43650;48.064;20.624;2023-02-08T00:16:12;10.53;;;4.10;;
57822;SDS011;43650;48.064;20.624;2023-02-08T00:17:13;12.90;;;4.25;;
57822;SDS011;43650;48.064;20.624;2023-02-08T00:18:13;11.80;;;5.17;;
57822;SDS011;43650;48.064;20.624;2023-02-08T00:19:14;11.40;;;4.80;;
57822;SDS011;43650;48.064;20.624;2023-02-08T00:20:14;9.47;;;4.67;;
57822;SDS011;43650;48.064;20.624;2023-02-08T00:21:15;12.27;;;4.77;;
57822;SDS011;43650;48.064;20.624;2023-02-08T00:22:16;10.95;;;4.78;;
57822;SDS011;43650;48.064;20.624;2023-02-08T00:23:17;10.20;;;4.43;;
57822;SDS011;43650;48.064;20.624;2023-02-08T00:24:17;15.07;;;4.35;;
57822;SDS011;43650;48.064;20.624;2023-02-08T00:25:18;10.80;;;4.80;;
57822;SDS011;43650;48.064;20.624;2023-02-08T00:26:18;12.67;;;4.07;;
57822;SDS011;43650;48.064;20.624;2023-02-08T00:27:18;13.83;;;5.10;;
57822;SDS011;43650;48.064;20.624;2023-02-08T00:28:20;10.90;;;4.18;;
57822;SDS011;43650;48.064;20.624;2023-02-08T00:29:20;14.97;;;4.70;;
57822;SDS011;43650;48.064;20.624;2023-02-08T00:30:21;8.43;;;4.07;;
57822;SDS011;43650;48.064;20.624;2023-02-08T00:31:21;11.53;;;3.90;;
57822;SDS011;43650;48.064;20.624;2023-02-08T00:32:21;10.97;;;5.10;;
57822;SDS011;43650;48.064;20.624;2023-02-08T00:33:22;9.67;;;5.10;;
57822;SDS011;43650;48.064;20.624;2023-02-08T00:34:22;21.60;;;6.37;;
57822;SDS011;43650;48.064;20.624;2023-02-08T00:35:23;28.97;;;9.10;;
57822;SDS011;43650;48.064;20.624;2023-02-08T00:36:23;22.27;;;7.10;;
57822;SDS011;43650;48.064;20.624;2023-02-08T00:37:24;11.00;;;5.60;;
57822;SDS011;43650;48.064;20.624;2023-02-08T00:38:24;16.87;;;5.90;;
57822;SDS011;43650;48.064;20.624;2023-02-08T00:39:25;17.33;;;6.72;;
57822;SDS011;43650;48.064;20.624;2023-02-08T00:40:26;18.43;;;6.43;;
57822;SDS011;43650;48.064;20.624;2023-02-08T00:41:26;20.88;;;7.20;;
57822;SDS011;43650;48.064;20.624;2023-02-08T00:42:27;21.80;;;6.93;;
57822;SDS011;43650;48.064;20.624;2023-02-08T00:43:28;13.20;;;5.50;;
57822;SDS011;43650;48.064;20.624;2023-02-08T00:44:28;14.90;;;5.13;;
57822;SDS011;43650;48.064;20.624;2023-02-08T00:45:29;11.00;;;5.30;;
57822;SDS011;43650;48.064;20.624;2023-02-08T00:46:31;15.45;;;4.80;;
57822;SDS011;43650;48.064;20.624;2023-02-08T00:47:32;11.20;;;5.40;;
57822;SDS011;43650;48.064;20.624;2023-02-08T00:48:32;14.73;;;5.50;;
57822;SDS011;43650;48.064;20.624;2023-02-08T00:49:33;12.07;;;5.77;;
57822;SDS011;43650;48.064;20.624;2023-02-08T00:50:33;11.37;;;4.67;;
57822;SDS011;43650;48.064;20.624;2023-02-08T00:51:34;12.07;;;5.43;;
57822;SDS011;43650;48.064;20.624;2023-02-08T00:52:34;17.17;;;5.97;;
57822;SDS011;43650;48.064;20.624;2023-02-08T00:53:38;11.13;;;5.50;;
57822;SDS011;43650;48.064;20.624;2023-02-08T00:54:39;17.15;;;6.07;;
57822;SDS011;43650;48.064;20.624;2023-02-08T00:55:40;14.07;;;5.87;;
57822;SDS011;43650;48.064;20.624;2023-02-08T00:56:41;18.43;;;5.93;;
57822;SDS011;43650;48.064;20.624;2023-02-08T00:57:41;12.83;;;5.20;;
57822;SDS011;43650;48.064;20.624;2023-02-08T00:58:42;9.27;;;4.57;;
57822;SDS011;43650;48.064;20.624;2023-02-08T00:59:43;11.90;;;4.28;;
57822;SDS011;43650;48.064;20.624;2023-02-08T01:00:43;10.27;;;4.77;;
57822;SDS011;43650;48.064;20.624;2023-02-08T01:01:43;12.83;;;5.27;;
57822;SDS011;43650;48.064;20.624;2023-02-08T01:02:44;13.00;;;4.43;;
57822;SDS011;43650;48.064;20.624;2023-02-08T01:03:44;10.27;;;4.70;;
57822;SDS011;43650;48.064;20.624;2023-02-08T01:04:46;10.88;;;3.58;;
57822;SDS011;43650;48.064;20.624;2023-02-08T01:05:47;14.70;;;4.67;;
57822;SDS011;43650;48.064;20.624;2023-02-08T01:06:47;12.73;;;5.53;;
57822;SDS011;43650;48.064;20.624;2023-02-08T01:07:48;22.77;;;6.03;;
57822;SDS011;43650;48.064;20.624;2023-02-08T01:08:48;23.30;;;5.60;;
57822;SDS011;43650;48.064;20.624;2023-02-08T01:09:48;15.63;;;6.47;;
57822;SDS011;43650;48.064;20.624;2023-02-08T01:10:49;18.30;;;6.80;;
57822;SDS011;43650;48.064;20.624;2023-02-08T01:11:49;15.03;;;6.53;;
57822;SDS011;43650;48.064;20.624;2023-02-08T01:12:50;10.83;;;5.07;;
57822;SDS011;43650;48.064;20.624;2023-02-08T01:13:51;16.47;;;6.03;;
57822;SDS011;43650;48.064;20.624;2023-02-08T01:14:56;17.83;;;6.90;;
57822;SDS011;43650;48.064;20.624;2023-02-08T01:16:04;9.67;;;4.77;;
57822;SDS011;43650;48.064;20.624;2023-02-08T01:17:05;11.90;;;5.20;;
57822;SDS011;43650;48.064;20.624;2023-02-08T01:18:06;14.93;;;6.00;;
57822;SDS011;43650;48.064;20.624;2023-02-08T01:19:07;12.33;;;5.30;;
57822;SDS011;43650;48.064;20.624;2023-02-08T01:20:07;11.47;;;4.93;;
57822;SDS011;43650;48.064;20.624;2023-02-08T01:21:09;16.17;;;6.05;;
57822;SDS011;43650;48.064;20.624;2023-02-08T01:22:11;16.77;;;5.87;;
57822;SDS011;43650;48.064;20.624;2023-02-08T01:23:12;15.40;;;5.57;;
57822;SDS011;43650;48.064;20.624;2023-02-08T01:24:12;9.40;;;4.73;;
57822;SDS011;43650;48.064;20.624;2023-02-08T01:25:13;14.53;;;4.27;;
57822;SDS011;43650;48.064;20.624;2023-02-08T01:26:14;15.57;;;5.40;;
57822;SDS011;43650;48.064;20.624;2023-02-08T01:27:15;9.85;;;4.37;;
57822;SDS011;43650;48.064;20.624;2023-02-08T01:28:15;9.03;;;4.23;;
57822;SDS011;43650;48.064;20.624;2023-02-08T01:29:16;11.27;;;5.53;;
57822;SDS011;43650;48.064;20.624;2023-02-08T01:30:16;15.97;;;5.17;;
57822;SDS011;43650;48.064;20.624;2023-02-08T01:31:18;7.17;;;3.93;;
57822;SDS011;43650;48.064;20.624;2023-02-08T01:32:29;9.10;;;3.67;;
57822;SDS011;43650;48.064;20.624;2023-02-08T01:33:29;11.13;;;5.70;;
57822;SDS011;43650;48.064;20.624;2023-02-08T01:34:30;14.50;;;6.40;;
57822;SDS011;43650;48.064;20.624;2023-02-08T01:35:30;12.00;;;4.77;;
57822;SDS011;43650;48.064;20.624;2023-02-08T01:36:31;12.53;;;4.97;;
57822;SDS011;43650;48.064;20.624;2023-02-08T01:38:33;12.20;;;4.53;;
57822;SDS011;43650;48.064;20.624;2023-02-08T01:40:34;8.63;;;4.18;;
57822;SDS011;43650;48.064;20.624;2023-02-08T01:41:39;13.53;;;5.03;;
57822;SDS011;43650;48.064;20.624;2023-02-08T01:42:42;16.12;;;5.57;;
57822;SDS011;43650;48.064;20.624;2023-02-08T01:44:04;13.37;;;5.67;;
57822;SDS011;43650;48.064;20.624;2023-02-08T01:46:22;16.55;;;5.93;;
57822;SDS011;43650;48.064;20.624;2023-02-08T01:47:22;28.63;;;4.97;;
57822;SDS011;43650;48.064;20.624;2023-02-08T01:48:24;10.83;;;4.83;;
57822;SDS011;43650;48.064;20.624;2023-02-08T01:49:32;11.00;;;4.53;;
57822;SDS011;43650;48.064;20.624;2023-02-08T01:50:37;11.75;;;6.30;;
57822;SDS011;43650;48.064;20.624;2023-02-08T01:51:44;15.30;;;5.05;;
57822;SDS011;43650;48.064;20.624;2023-02-08T01:52:47;11.27;;;5.20;;
57822;SDS011;43650;48.064;20.624;2023-02-08T01:53:48;10.07;;;5.55;;
57822;SDS011;43650;48.064;20.624;2023-02-08T01:54:51;12.45;;;6.12;;
57822;SDS011;43650;48.064;20.624;2023-02-08T01:55:55;15.43;;;6.35;;
57822;SDS011;43650;48.064;20.624;2023-02-08T01:56:58;14.05;;;5.20;;
57822;SDS011;43650;48.064;20.624;2023-02-08T01:57:59;12.47;;;5.67;;
57822;SDS011;43650;48.064;20.624;2023-02-08T01:59:03;13.57;;;5.85;;
57822;SDS011;43650;48.064;20.624;2023-02-08T02:00:07;14.55;;;6.80;;
57822;SDS011;43650;48.064;20.624;2023-02-08T02:01:21;16.85;;;6.07;;
57822;SDS011;43650;48.064;20.624;2023-02-08T02:02:21;11.65;;;5.20;;
57822;SDS011;43650;48.064;20.624;2023-02-08T02:03:22;10.43;;;5.85;;
57822;SDS011;43650;48.064;20.624;2023-02-08T02:04:24;10.93;;;5.47;;
57822;SDS011;43650;48.064;20.624;2023-02-08T02:05:26;13.13;;;4.97;;
57822;SDS011;43650;48.064;20.624;2023-02-08T02:06:39;13.50;;;6.72;;
57822;SDS011;43650;48.064;20.624;2023-02-08T02:07:43;12.00;;;5.40;;
57822;SDS011;43650;48.064;20.624;2023-02-08T02:08:46;16.63;;;5.77;;
57822;SDS011;43650;48.064;20.624;2023-02-08T02:10:09;14.60;;;5.37;;
57822;SDS011;43650;48.064;20.624;2023-02-08T02:12:14;14.98;;;5.28;;
57822;SDS011;43650;48.064;20.624;2023-02-08T02:13:22;11.00;;;4.72;;
57822;SDS011;43650;48.064;20.624;2023-02-08T02:14:25;12.02;;;5.30;;
57822;SDS011;43650;48.064;20.624;2023-02-08T02:15:25;10.48;;;5.28;;
57822;SDS011;43650;48.064;20.624;2023-02-08T02:16:26;10.13;;;4.93;;
57822;SDS011;43650;48.064;20.624;2023-02-08T02:17:26;18.80;;;5.87;;
57822;SDS011;43650;48.064;20.624;2023-02-08T02:18:30;11.97;;;5.80;;
57822;SDS011;43650;48.064;20.624;2023-02-08T02:22:01;15.65;;;6.78;;
57822;SDS011;43650;48.064;20.624;2023-02-08T02:34:46;12.15;;;4.37;;
57822;SDS011;43650;48.064;20.624;2023-02-08T02:37:43;13.73;;;5.65;;
57822;SDS011;43650;48.064;20.624;2023-02-08T02:39:04;9.30;;;4.95;;
57822;SDS011;43650;48.064;20.624;2023-02-08T02:40:21;11.93;;;5.20;;
57822;SDS011;43650;48.064;20.624;2023-02-08T02:41:39;13.60;;;6.60;;
57822;SDS011;43650;48.064;20.624;2023-02-08T02:43:10;10.68;;;4.97;;
57822;SDS011;43650;48.064;20.624;2023-02-08T02:44:51;16.05;;;5.55;;
57822;SDS011;43650;48.064;20.624;2023-02-08T02:51:10;20.05;;;5.97;;
57822;SDS011;43650;48.064;20.624;2023-02-08T02:55:25;15.25;;;5.20;;
57822;SDS011;43650;48.064;20.624;2023-02-08T02:56:28;12.20;;;5.60;;
57822;SDS011;43650;48.064;20.624;2023-02-08T02:57:31;16.25;;;5.35;;
57822;SDS011;43650;48.064;20.624;2023-02-08T02:58:32;18.17;;;6.90;;
57822;SDS011;43650;48.064;20.624;2023-02-08T02:59:33;14.35;;;6.12;;
57822;SDS011;43650;48.064;20.624;2023-02-08T03:00:35;12.32;;;6.32;;
57822;SDS011;43650;48.064;20.624;2023-02-08T03:01:36;14.60;;;4.95;;
57822;SDS011;43650;48.064;20.624;2023-02-08T03:03:38;16.85;;;5.35;;
57822;SDS011;43650;48.064;20.624;2023-02-08T03:05:39;14.07;;;5.20;;
57822;SDS011;43650;48.064;20.624;2023-02-08T03:06:50;12.70;;;6.60;;
57822;SDS011;43650;48.064;20.624;2023-02-08T03:08:19;12.60;;;4.87;;
57822;SDS011;43650;48.064;20.624;2023-02-08T03:12:14;30.92;;;13.05;;
57822;SDS011;43650;48.064;20.624;2023-02-08T03:14:39;16.17;;;6.95;;
57822;SDS011;43650;48.064;20.624;2023-02-08T03:19:37;19.20;;;8.15;;
57822;SDS011;43650;48.064;20.624;2023-02-08T03:20:44;18.75;;;7.43;;
57822;SDS011;43650;48.064;20.624;2023-02-08T03:24:57;16.55;;;6.50;;
57822;SDS011;43650;48.064;20.624;2023-02-08T03:26:11;14.80;;;7.95;;
57822;SDS011;43650;48.064;20.624;2023-02-08T03:28:33;20.88;;;8.02;;
57822;SDS011;43650;48.064;20.624;2023-02-08T03:31:14;15.98;;;6.12;;
57822;SDS011;43650;48.064;20.624;2023-02-08T03:32:35;16.10;;;5.85;;
57822;SDS011;43650;48.064;20.624;2023-02-08T03:33:45;14.27;;;7.05;;
57822;SDS011;43650;48.064;20.624;2023-02-08T03:34:57;14.95;;;6.22;;
57822;SDS011;43650;48.064;20.624;2023-02-08T03:36:13;14.18;;;5.37;;
57822;SDS011;43650;48.064;20.624;2023-02-08T03:37:44;16.48;;;5.22;;
57822;SDS011;43650;48.064;20.624;2023-02-08T03:38:48;14.70;;;4.93;;
57822;SDS011;43650;48.064;20.624;2023-02-08T03:39:50;18.45;;;7.12;;
57822;SDS011;43650;48.064;20.624;2023-02-08T03:40:55;16.27;;;7.20;;
57822;SDS011;43650;48.064;20.624;2023-02-08T03:41:59;23.00;;;7.60;;
57822;SDS011;43650;48.064;20.624;2023-02-08T03:43:04;16.77;;;5.82;;
57822;SDS011;43650;48.064;20.624;2023-02-08T03:45:22;13.35;;;5.87;;
57822;SDS011;43650;48.064;20.624;2023-02-08T03:46:36;19.83;;;6.28;;
57822;SDS011;43650;48.064;20.624;2023-02-08T03:47:38;14.75;;;6.22;;
57822;SDS011;43650;48.064;20.624;2023-02-08T03:49:40;15.02;;;5.97;;
57822;SDS011;43650;48.064;20.624;2023-02-08T03:50:42;12.73;;;5.70;;
57822;SDS011;43650;48.064;20.624;2023-02-08T03:51:46;10.98;;;5.95;;
57822;SDS011;43650;48.064;20.624;2023-02-08T03:52:47;13.65;;;5.50;;
57822;SDS011;43650;48.064;20.624;2023-02-08T03:53:48;11.88;;;5.10;;
57822;SDS011;43650;48.064;20.624;2023-02-08T03:54:55;16.30;;;5.70;;
57822;SDS011;43650;48.064;20.624;2023-02-08T03:55:59;15.57;;;6.15;;
57822;SDS011;43650;48.064;20.624;2023-02-08T03:57:05;15.55;;;7.07;;
57822;SDS011;43650;48.064;20.624;2023-02-08T03:58:11;16.73;;;6.65;;
57822;SDS011;43650;48.064;20.624;2023-02-08T03:59:19;11.57;;;5.75;;
57822;SDS011;43650;48.064;20.624;2023-02-08T04:00:22;15.43;;;5.40;;
57822;SDS011;43650;48.064;20.624;2023-02-08T04:01:28;13.73;;;4.95;;
57822;SDS011;43650;48.064;20.624;2023-02-08T04:02:32;14.00;;;6.05;;
57822;SDS011;43650;48.064;20.624;2023-02-08T04:03:34;14.50;;;6.95;;
57822;SDS011;43650;48.064;20.624;2023-02-08T04:04:36;10.18;;;5.25;;
57822;SDS011;43650;48.064;20.624;2023-02-08T04:05:39;17.83;;;5.62;;
57822;SDS011;43650;48.064;20.624;2023-02-08T04:06:40;15.35;;;6.70;;
57822;SDS011;43650;48.064;20.624;2023-02-08T04:07:41;11.83;;;6.40;;
57822;SDS011;43650;48.064;20.624;2023-02-08T04:08:41;13.25;;;5.60;;
57822;SDS011;43650;48.064;20.624;2023-02-08T04:09:42;12.43;;;4.93;;
57822;SDS011;43650;48.064;20.624;2023-02-08T04:10:42;12.83;;;4.77;;
57822;SDS011;43650;48.064;20.624;2023-02-08T04:11:44;11.77;;;5.43;;
57822;SDS011;43650;48.064;20.624;2023-02-08T04:12:44;14.77;;;6.67;;
57822;SDS011;43650;48.064;20.624;2023-02-08T04:13:46;11.25;;;5.53;;
57822;SDS011;43650;48.064;20.624;2023-02-08T04:14:47;15.60;;;6.20;;
57822;SDS011;43650;48.064;20.624;2023-02-08T04:15:47;13.30;;;6.27;;
57822;SDS011;43650;48.064;20.624;2023-02-08T04:16:47;14.60;;;6.07;;
57822;SDS011;43650;48.064;20.624;2023-02-08T04:17:48;12.43;;;5.80;;
57822;SDS011;43650;48.064;20.624;2023-02-08T04:18:48;13.17;;;5.70;;
57822;SDS011;43650;48.064;20.624;2023-02-08T04:19:48;12.47;;;5.73;;
57822;SDS011;43650;48.064;20.624;2023-02-08T04:20:49;14.27;;;6.10;;
57822;SDS011;43650;48.064;20.624;2023-02-08T04:21:49;11.73;;;5.27;;
57822;SDS011;43650;48.064;20.624;2023-02-08T04:22:50;8.67;;;5.07;;
57822;SDS011;43650;48.064;20.624;2023-02-08T04:23:50;11.37;;;5.47;;
57822;SDS011;43650;48.064;20.624;2023-02-08T04:24:51;12.50;;;6.27;;
57822;SDS011;43650;48.064;20.624;2023-02-08T04:25:51;16.10;;;6.17;;
57822;SDS011;43650;48.064;20.624;2023-02-08T04:26:51;23.73;;;7.33;;
57822;SDS011;43650;48.064;20.624;2023-02-08T04:27:52;13.93;;;7.33;;
57822;SDS011;43650;48.064;20.624;2023-02-08T04:28:52;13.93;;;6.03;;
57822;SDS011;43650;48.064;20.624;2023-02-08T04:29:53;14.23;;;5.93;;
57822;SDS011;43650;48.064;20.624;2023-02-08T04:30:54;15.13;;;6.27;;
57822;SDS011;43650;48.064;20.624;2023-02-08T04:31:55;12.73;;;5.32;;
57822;SDS011;43650;48.064;20.624;2023-02-08T04:32:56;19.60;;;7.47;;
57822;SDS011;43650;48.064;20.624;2023-02-08T04:33:58;15.32;;;6.15;;
57822;SDS011;43650;48.064;20.624;2023-02-08T04:34:59;16.20;;;6.20;;
57822;SDS011;43650;48.064;20.624;2023-02-08T04:35:59;12.10;;;5.70;;
57822;SDS011;43650;48.064;20.624;2023-02-08T04:37:03;15.70;;;5.23;;
57822;SDS011;43650;48.064;20.624;2023-02-08T04:38:04;16.00;;;5.80;;
57822;SDS011;43650;48.064;20.624;2023-02-08T04:39:04;13.97;;;5.83;;
57822;SDS011;43650;48.064;20.624;2023-02-08T04:40:05;13.13;;;5.67;;
57822;SDS011;43650;48.064;20.624;2023-02-08T04:41:05;16.65;;;6.97;;
57822;SDS011;43650;48.064;20.624;2023-02-08T04:42:06;29.60;;;8.67;;
57822;SDS011;43650;48.064;20.624;2023-02-08T04:43:07;18.02;;;7.78;;
57822;SDS011;43650;48.064;20.624;2023-02-08T04:44:08;12.13;;;5.50;;
57822;SDS011;43650;48.064;20.624;2023-02-08T04:45:08;22.43;;;7.03;;
57822;SDS011;43650;48.064;20.624;2023-02-08T04:46:09;15.40;;;7.72;;
57822;SDS011;43650;48.064;20.624;2023-02-08T04:47:09;53.70;;;18.90;;
57822;SDS011;43650;48.064;20.624;2023-02-08T04:48:10;26.27;;;10.30;;
57822;SDS011;43650;48.064;20.624;2023-02-08T04:49:10;14.73;;;8.10;;
57822;SDS011;43650;48.064;20.624;2023-02-08T04:50:11;12.17;;;6.10;;
57822;SDS011;43650;48.064;20.624;2023-02-08T04:51:11;16.77;;;11.50;;
57822;SDS011;43650;48.064;20.624;2023-02-08T04:52:12;16.30;;;9.50;;
57822;SDS011;43650;48.064;20.624;2023-02-08T04:53:12;21.70;;;10.17;;
57822;SDS011;43650;48.064;20.624;2023-02-08T04:54:12;21.13;;;7.47;;
57822;SDS011;43650;48.064;20.624;2023-02-08T04:55:13;20.30;;;8.80;;
57822;SDS011;43650;48.064;20.624;2023-02-08T04:56:13;31.50;;;14.30;;
57822;SDS011;43650;48.064;20.624;2023-02-08T04:57:14;50.07;;;18.83;;
57822;SDS011;43650;48.064;20.624;2023-02-08T04:58:14;27.80;;;9.80;;
57822;SDS011;43650;48.064;20.624;2023-02-08T04:59:15;17.98;;;6.28;;
57822;SDS011;43650;48.064;20.624;2023-02-08T05:00:16;19.07;;;9.30;;
57822;SDS011;43650;48.064;20.624;2023-02-08T05:01:16;13.50;;;5.18;;
57822;SDS011;43650;48.064;20.624;2023-02-08T05:02:17;10.73;;;6.27;;
57822;SDS011;43650;48.064;20.624;2023-02-08T05:03:17;14.13;;;6.57;;
57822;SDS011;43650;48.064;20.624;2023-02-08T05:04:18;15.95;;;6.78;;
57822;SDS011;43650;48.064;20.624;2023-02-08T05:05:18;14.93;;;6.67;;
57822;SDS011;43650;48.064;20.624;2023-02-08T05:06:19;10.45;;;5.90;;
57822;SDS011;43650;48.064;20.624;2023-02-08T05:07:19;15.50;;;7.47;;
57822;SDS011;43650;48.064;20.624;2023-02-08T05:08:20;18.43;;;7.83;;
57822;SDS011;43650;48.064;20.624;2023-02-08T05:09:20;18.87;;;7.07;;
57822;SDS011;43650;48.064;20.624;2023-02-08T05:10:21;16.37;;;6.50;;
57822;SDS011;43650;48.064;20.624;2023-02-08T05:11:22;15.75;;;6.82;;
57822;SDS011;43650;48.064;20.624;2023-02-08T05:12:23;17.08;;;7.00;;
57822;SDS011;43650;48.064;20.624;2023-02-08T05:13:24;21.00;;;7.10;;
57822;SDS011;43650;48.064;20.624;2023-02-08T05:14:24;16.70;;;8.27;;
57822;SDS011;43650;48.064;20.624;2023-02-08T05:15:25;17.63;;;7.87;;
57822;SDS011;43650;48.064;20.624;2023-02-08T05:16:25;21.73;;;7.33;;
57822;SDS011;43650;48.064;20.624;2023-02-08T05:17:26;17.30;;;6.93;;
57822;SDS011;43650;48.064;20.624;2023-02-08T05:18:26;12.57;;;5.63;;
57822;SDS011;43650;48.064;20.624;2023-02-08T05:19:26;23.03;;;8.77;;
57822;SDS011;43650;48.064;20.624;2023-02-08T05:20:27;14.50;;;7.20;;
57822;SDS011;43650;48.064;20.624;2023-02-08T05:21:28;18.25;;;7.12;;
57822;SDS011;43650;48.064;20.624;2023-02-08T05:22:29;18.40;;;7.27;;
57822;SDS011;43650;48.064;20.624;2023-02-08T05:23:30;17.90;;;8.00;;
57822;SDS011;43650;48.064;20.624;2023-02-08T05:24:31;22.15;;;8.23;;
57822;SDS011;43650;48.064;20.624;2023-02-08T05:25:31;15.73;;;6.63;;
57822;SDS011;43650;48.064;20.624;2023-02-08T05:26:32;17.03;;;7.50;;
57822;SDS011;43650;48.064;20.624;2023-02-08T05:27:32;26.97;;;9.13;;
57822;SDS011;43650;48.064;20.624;2023-02-08T05:28:33;20.37;;;8.80;;
57822;SDS011;43650;48.064;20.624;2023-02-08T05:29:34;17.45;;;8.68;;
57822;SDS011;43650;48.064;20.624;2023-02-08T05:30:36;32.10;;;15.70;;
57822;SDS011;43650;48.064;20.624;2023-02-08T05:31:37;27.90;;;11.50;;
57822;SDS011;43650;48.064;20.624;2023-02-08T05:32:38;24.35;;;11.18;;
57822;SDS011;43650;48.064;20.624;2023-02-08T05:33:38;25.23;;;9.80;;
57822;SDS011;43650;48.064;20.624;2023-02-08T05:34:39;23.40;;;12.50;;
57822;SDS011;43650;48.064;20.624;2023-02-08T05:35:39;16.43;;;7.73;;
57822;SDS011;43650;48.064;20.624;2023-02-08T05:36:40;19.48;;;8.57;;
57822;SDS011;43650;48.064;20.624;2023-02-08T05:37:40;23.40;;;8.33;;
57822;SDS011;43650;48.064;20.624;2023-02-08T05:38:40;27.47;;;8.57;;
57822;SDS011;43650;48.064;20.624;2023-02-08T05:39:41;19.37;;;8.67;;
57822;SDS011;43650;48.064;20.624;2023-02-08T05:40:41;24.10;;;9.13;;
57822;SDS011;43650;48.064;20.624;2023-02-08T05:41:42;23.87;;;9.03;;
57822;SDS011;43650;48.064;20.624;2023-02-08T05:42:42;18.03;;;7.03;;
57822;SDS011;43650;48.064;20.624;2023-02-08T05:43:43;34.38;;;12.27;;
57822;SDS011;43650;48.064;20.624;2023-02-08T05:44:44;28.58;;;10.43;;
57822;SDS011;43650;48.064;20.624;2023-02-08T05:45:45;20.80;;;8.55;;
57822;SDS011;43650;48.064;20.624;2023-02-08T05:46:46;35.73;;;16.83;;
57822;SDS011;43650;48.064;20.624;2023-02-08T05:47:46;31.65;;;13.45;;
57822;SDS011;43650;48.064;20.624;2023-02-08T05:48:47;23.10;;;11.00;;
57822;SDS011;43650;48.064;20.624;2023-02-08T05:49:47;20.63;;;9.77;;
57822;SDS011;43650;48.064;20.624;2023-02-08T05:50:48;20.50;;;8.70;;
57822;SDS011;43650;48.064;20.624;2023-02-08T05:51:48;23.07;;;10.07;;
57822;SDS011;43650;48.064;20.624;2023-02-08T05:52:49;17.37;;;7.87;;
57822;SDS011;43650;48.064;20.624;2023-02-08T05:53:50;22.17;;;9.80;;
57822;SDS011;43650;48.064;20.624;2023-02-08T05:54:50;38.45;;;18.45;;
57822;SDS011;43650;48.064;20.624;2023-02-08T05:55:51;16.80;;;7.90;;
57822;SDS011;43650;48.064;20.624;2023-02-08T05:56:51;17.33;;;7.43;;
57822;SDS011;43650;48.064;20.624;2023-02-08T05:57:52;17.73;;;8.60;;
57822;SDS011;43650;48.064;20.624;2023-02-08T05:58:52;23.47;;;9.77;;
57822;SDS011;43650;48.064;20.624;2023-02-08T05:59:53;18.37;;;6.75;;
57822;SDS011;43650;48.064;20.624;2023-02-08T06:00:53;21.40;;;9.60;;
57822;SDS011;43650;48.064;20.624;2023-02-08T06:01:54;27.40;;;13.07;;
57822;SDS011;43650;48.064;20.624;2023-02-08T06:02:55;26.37;;;11.97;;
57822;SDS011;43650;48.064;20.624;2023-02-08T06:03:57;20.65;;;8.75;;
57822;SDS011;43650;48.064;20.624;2023-02-08T06:04:58;26.35;;;9.45;;
57822;SDS011;43650;48.064;20.624;2023-02-08T06:05:59;16.03;;;9.20;;
57822;SDS011;43650;48.064;20.624;2023-02-08T06:08:00;15.48;;;6.10;;
57822;SDS011;43650;48.064;20.624;2023-02-08T06:09:01;24.63;;;11.43;;
57822;SDS011;43650;48.064;20.624;2023-02-08T06:10:02;20.27;;;9.17;;
57822;SDS011;43650;48.064;20.624;2023-02-08T06:11:02;16.73;;;7.60;;
57822;SDS011;43650;48.064;20.624;2023-02-08T06:12:03;23.55;;;11.30;;
57822;SDS011;43650;48.064;20.624;2023-02-08T06:13:04;23.67;;;11.77;;
57822;SDS011;43650;48.064;20.624;2023-02-08T06:14:04;21.37;;;10.10;;
57822;SDS011;43650;48.064;20.624;2023-02-08T06:15:05;13.70;;;6.40;;
57822;SDS011;43650;48.064;20.624;2023-02-08T06:16:05;21.55;;;7.60;;
57822;SDS011;43650;48.064;20.624;2023-02-08T06:17:06;22.52;;;9.85;;
57822;SDS011;43650;48.064;20.624;2023-02-08T06:18:06;17.97;;;8.80;;
57822;SDS011;43650;48.064;20.624;2023-02-08T06:19:08;27.58;;;13.48;;
57822;SDS011;43650;48.064;20.624;2023-02-08T06:20:08;24.07;;;10.17;;
57822;SDS011;43650;48.064;20.624;2023-02-08T06:21:09;17.98;;;7.93;;
57822;SDS011;43650;48.064;20.624;2023-02-08T06:22:11;15.88;;;6.25;;
57822;SDS011;43650;48.064;20.624;2023-02-08T06:23:11;27.37;;;9.50;;
57822;SDS011;43650;48.064;20.624;2023-02-08T06:24:12;31.30;;;11.10;;
57822;SDS011;43650;48.064;20.624;2023-02-08T06:25:12;14.87;;;7.50;;
57822;SDS011;43650;48.064;20.624;2023-02-08T06:26:13;23.07;;;6.97;;
57822;SDS011;43650;48.064;20.624;2023-02-08T06:27:13;16.80;;;8.43;;
57822;SDS011;43650;48.064;20.624;2023-02-08T06:28:14;16.53;;;7.60;;
57822;SDS011;43650;48.064;20.624;2023-02-08T06:29:14;17.67;;;9.13;;
57822;SDS011;43650;48.064;20.624;2023-02-08T06:30:15;23.60;;;9.93;;
57822;SDS011;43650;48.064;20.624;2023-02-08T06:31:15;42.53;;;16.10;;
57822;SDS011;43650;48.064;20.624;2023-02-08T06:32:16;34.87;;;16.00;;
57822;SDS011;43650;48.064;20.624;2023-02-08T06:33:16;26.37;;;13.23;;
57822;SDS011;43650;48.064;20.624;2023-02-08T06:34:17;28.60;;;11.95;;
57822;SDS011;43650;48.064;20.624;2023-02-08T06:35:18;23.50;;;10.23;;
57822;SDS011;43650;48.064;20.624;2023-02-08T06:36:19;43.25;;;15.48;;
57822;SDS011;43650;48.064;20.624;2023-02-08T06:37:19;32.03;;;14.53;;
57822;SDS011;43650;48.064;20.624;2023-02-08T06:38:20;28.50;;;13.37;;
57822;SDS011;43650;48.064;20.624;2023-02-08T06:39:20;31.00;;;15.35;;
57822;SDS011;43650;48.064;20.624;2023-02-08T06:40:21;31.37;;;16.20;;
57822;SDS011;43650;48.064;20.624;2023-02-08T06:41:21;37.87;;;15.90;;
57822;SDS011;43650;48.064;20.624;2023-02-08T06:42:21;25.80;;;11.27;;
57822;SDS011;43650;48.064;20.624;2023-02-08T06:43:22;25.97;;;10.80;;
57822;SDS011;43650;48.064;20.624;2023-02-08T06:44:23;26.93;;;10.60;;
57822;SDS011;43650;48.064;20.624;2023-02-08T06:45:23;22.13;;;11.20;;
57822;SDS011;43650;48.064;20.624;2023-02-08T06:46:24;35.63;;;16.03;;
57822;SDS011;43650;48.064;20.624;2023-02-08T06:47:24;24.90;;;10.67;;
57822;SDS011;43650;48.064;20.624;2023-02-08T06:48:25;30.23;;;12.27;;
57822;SDS011;43650;48.064;20.624;2023-02-08T06:49:26;19.27;;;9.87;;
57822;SDS011;43650;48.064;20.624;2023-02-08T06:50:26;18.23;;;8.37;;
57822;SDS011;43650;48.064;20.624;2023-02-08T06:51:27;18.97;;;10.27;;
57822;SDS011;43650;48.064;20.624;2023-02-08T06:52:27;13.13;;;6.73;;
57822;SDS011;43650;48.064;20.624;2023-02-08T06:53:27;21.10;;;8.60;;